Aeroporto :
LOGIN :

Iscrizione | Disclaimer

   EN    FR    IT 

 










Sommario :    VFR   VFR Marginale   IFR   IFR Intensivo   IFR Molto Intensivo
Visibilità : 
Base nubi : 
>= 8 km
>= 3000ft
5 / 8 km
1000 / 3000 ft
1500m / 5 km
500 / 1000 ft
800 / 1500m
200 / 500 ft
< 800m
< 200 ft
Simboli :   Temporali  Nebbia  Neve Forte  Precipitazioni Forti  Vento > 20 kt
SIGMETs :   Varie  Temporali  Ghiacco  Turbolenza  Onda orograficha  Ceneri Vulcaniche







- Altitudine del aeroporto : 681 ft
- Codice IATA : LBA
- Carte del aeroporto


EGNM - Leeds Bradford

ULTIMO METAR :
  • 192220Z 22013KT 190V250 CAVOK 11/06 Q1008

METARs OBSOLETI :
  • 192150Z 22013KT CAVOK 12/06 Q1008
  • 192120Z 23015KT 200V260 CAVOK 12/06 Q1008
  • 192050Z 23015KT 190V260 CAVOK 12/06 Q1008
  • 192020Z 23016G26KT 190V260 9999 FEW032 SCT048 12/06 Q1007
  • 191950Z 23016KT 9999 FEW032 SCT048 13/07 Q1007

TAF TAF EGNM
Valido dal 19 a 18 ore il 20 a 18 ore UTC


191707Z 1918/2018 25020G32KT 9999 SCT030
BECMG 1918/1921 22018G28KT
BECMG 1921/1924 21015KT
BECMG 2000/2003 18005KT
PROB30
TEMPO 2003/2010 8000 -RA BKN007
BECMG 2010/2013 8000 -RA BKN007
TEMPO 2010/2018 3000 RA BR BKN004
BECMG 2016/2018 17015KT
PROB30
TEMPO 2016/2018 +RA BKN001
ATIS : +44 113 250 9696 (x2489)
Nessun NOTAM noto per questo aeroporto.
2 SIGMETs conosciuti per la FIR London (EGTT) :
 
Turbolenza severa
EGTT SIGMET 15 VALID 192132/200100 EGRR
EGTT LONDON FIR SEV TURB FCST NW OF LINE N5355 W00530 - N5500 E00000 SFC/FL060 MOV N 05KT WKN=
Forte onda orograficha
EGTT SIGMET 14 VALID 192100/200100 EGRR
EGTT LONDON FIR SEV MTW FCST WI N5500 E00020 - N5347 E00134 - N5220 W00344 - N5357 W00530 - N5500 W00530 - N5500 E00020 FL030/250 STNR NC=



MetMap, La meteo Aeronautica in un colpo d'occhio ! - Copyright ORBIFLY Dicembre 2007 - Disclaimer

ORBIFLY MET'MAP TEAM :

Programmazione e sviluppo : Alexandra Zaïnal
Concezione e sviluppo : Baudouin d'Aumeries
Co-Programmazione e sviluppo : Marc-Olivier Méhu
Supporto tecnico e logistico : Manuel Goepfert
Aiuto per la traduzione : Arnaldo La Scala

Contatto : metmap@orbifly.com




FONTI E CREDITI :

   NOAA